sensor_id;sensor_type;location;lat;lon;timestamp;P1;durP1;ratioP1;P2;durP2;ratioP2
79454;SDS011;68900;52.134;5.420;2023-11-18T00:02:25;21.88;;;9.63;;
79454;SDS011;68900;52.134;5.420;2023-11-18T00:04:51;22.40;;;10.23;;
79454;SDS011;68900;52.134;5.420;2023-11-18T00:07:26;24.50;;;11.00;;
79454;SDS011;68900;52.134;5.420;2023-11-18T00:09:52;23.80;;;10.57;;
79454;SDS011;68900;52.134;5.420;2023-11-18T00:17:56;21.80;;;10.55;;
79454;SDS011;68900;52.134;5.420;2023-11-18T00:20:23;23.30;;;10.43;;
79454;SDS011;68900;52.134;5.420;2023-11-18T00:23:01;23.60;;;11.35;;
79454;SDS011;68900;52.134;5.420;2023-11-18T00:25:31;22.75;;;10.88;;
79454;SDS011;68900;52.134;5.420;2023-11-18T00:27:59;24.77;;;11.40;;
79454;SDS011;68900;52.134;5.420;2023-11-18T00:30:25;23.98;;;10.30;;
79454;SDS011;68900;52.134;5.420;2023-11-18T00:32:52;24.05;;;10.63;;
79454;SDS011;68900;52.134;5.420;2023-11-18T00:35:19;24.00;;;10.48;;
79454;SDS011;68900;52.134;5.420;2023-11-18T00:37:45;20.80;;;9.65;;
79454;SDS011;68900;52.134;5.420;2023-11-18T00:40:12;26.63;;;10.40;;
79454;SDS011;68900;52.134;5.420;2023-11-18T00:42:38;21.83;;;9.57;;
79454;SDS011;68900;52.134;5.420;2023-11-18T00:45:07;21.73;;;9.65;;
79454;SDS011;68900;52.134;5.420;2023-11-18T00:47:34;20.02;;;9.68;;
79454;SDS011;68900;52.134;5.420;2023-11-18T00:50:01;22.15;;;10.48;;
79454;SDS011;68900;52.134;5.420;2023-11-18T00:52:30;21.02;;;9.82;;
79454;SDS011;68900;52.134;5.420;2023-11-18T00:54:56;22.65;;;10.43;;
79454;SDS011;68900;52.134;5.420;2023-11-18T00:57:23;22.50;;;10.70;;
79454;SDS011;68900;52.134;5.420;2023-11-18T00:59:49;25.90;;;10.68;;
79454;SDS011;68900;52.134;5.420;2023-11-18T01:02:16;21.63;;;11.48;;
79454;SDS011;68900;52.134;5.420;2023-11-18T01:04:44;21.10;;;10.20;;
79454;SDS011;68900;52.134;5.420;2023-11-18T01:07:17;20.65;;;9.55;;
79454;SDS011;68900;52.134;5.420;2023-11-18T01:09:44;20.42;;;9.38;;
79454;SDS011;68900;52.134;5.420;2023-11-18T01:12:14;22.85;;;9.20;;
79454;SDS011;68900;52.134;5.420;2023-11-18T01:24:40;21.35;;;9.90;;
79454;SDS011;68900;52.134;5.420;2023-11-18T01:27:07;18.95;;;9.85;;
79454;SDS011;68900;52.134;5.420;2023-11-18T01:29:37;19.30;;;9.52;;
79454;SDS011;68900;52.134;5.420;2023-11-18T01:32:06;23.38;;;11.63;;
79454;SDS011;68900;52.134;5.420;2023-11-18T01:34:36;20.42;;;9.95;;
79454;SDS011;68900;52.134;5.420;2023-11-18T01:37:05;26.38;;;11.20;;
79454;SDS011;68900;52.134;5.420;2023-11-18T01:39:33;23.48;;;10.02;;
79454;SDS011;68900;52.134;5.420;2023-11-18T01:42:00;22.98;;;10.30;;
79454;SDS011;68900;52.134;5.420;2023-11-18T01:44:29;22.00;;;10.27;;
79454;SDS011;68900;52.134;5.420;2023-11-18T01:46:57;22.13;;;10.15;;
79454;SDS011;68900;52.134;5.420;2023-11-18T01:49:24;23.80;;;10.35;;
79454;SDS011;68900;52.134;5.420;2023-11-18T01:51:53;19.42;;;9.70;;
79454;SDS011;68900;52.134;5.420;2023-11-18T01:54:21;21.00;;;9.95;;
79454;SDS011;68900;52.134;5.420;2023-11-18T01:56:50;24.15;;;11.15;;
79454;SDS011;68900;52.134;5.420;2023-11-18T01:59:18;22.13;;;10.73;;
79454;SDS011;68900;52.134;5.420;2023-11-18T02:01:46;20.92;;;10.18;;
79454;SDS011;68900;52.134;5.420;2023-11-18T02:04:25;22.02;;;9.88;;
79454;SDS011;68900;52.134;5.420;2023-11-18T02:06:52;24.70;;;10.35;;
79454;SDS011;68900;52.134;5.420;2023-11-18T02:09:20;23.85;;;10.65;;
79454;SDS011;68900;52.134;5.420;2023-11-18T02:14:49;18.38;;;9.35;;
79454;SDS011;68900;52.134;5.420;2023-11-18T02:17:18;28.65;;;11.23;;
79454;SDS011;68900;52.134;5.420;2023-11-18T02:19:50;21.73;;;10.05;;
79454;SDS011;68900;52.134;5.420;2023-11-18T02:22:19;22.85;;;10.50;;
79454;SDS011;68900;52.134;5.420;2023-11-18T02:24:47;26.13;;;10.23;;
79454;SDS011;68900;52.134;5.420;2023-11-18T02:27:15;25.65;;;11.30;;
79454;SDS011;68900;52.134;5.420;2023-11-18T02:29:43;22.25;;;10.55;;
79454;SDS011;68900;52.134;5.420;2023-11-18T02:34:45;23.33;;;10.40;;
79454;SDS011;68900;52.134;5.420;2023-11-18T02:37:20;23.58;;;10.45;;
79454;SDS011;68900;52.134;5.420;2023-11-18T02:39:49;24.08;;;10.40;;
79454;SDS011;68900;52.134;5.420;2023-11-18T02:42:23;24.95;;;11.60;;
79454;SDS011;68900;52.134;5.420;2023-11-18T02:44:51;23.10;;;10.93;;
79454;SDS011;68900;52.134;5.420;2023-11-18T02:47:26;25.58;;;10.77;;
79454;SDS011;68900;52.134;5.420;2023-11-18T02:49:53;24.88;;;10.93;;
79454;SDS011;68900;52.134;5.420;2023-11-18T02:54:49;21.88;;;10.43;;
79454;SDS011;68900;52.134;5.420;2023-11-18T02:57:15;23.10;;;10.25;;
79454;SDS011;68900;52.134;5.420;2023-11-18T02:59:42;25.52;;;11.90;;
79454;SDS011;68900;52.134;5.420;2023-11-18T03:02:08;23.02;;;10.82;;
79454;SDS011;68900;52.134;5.420;2023-11-18T03:04:35;29.98;;;11.52;;
79454;SDS011;68900;52.134;5.420;2023-11-18T03:07:02;25.58;;;11.10;;
79454;SDS011;68900;52.134;5.420;2023-11-18T03:09:29;26.60;;;11.80;;
79454;SDS011;68900;52.134;5.420;2023-11-18T03:11:55;25.70;;;11.18;;
79454;SDS011;68900;52.134;5.420;2023-11-18T03:14:24;26.27;;;12.05;;
79454;SDS011;68900;52.134;5.420;2023-11-18T03:16:50;26.50;;;10.88;;
79454;SDS011;68900;52.134;5.420;2023-11-18T03:19:20;23.60;;;11.65;;
79454;SDS011;68900;52.134;5.420;2023-11-18T03:21:51;25.67;;;11.40;;
79454;SDS011;68900;52.134;5.420;2023-11-18T03:24:22;25.88;;;11.57;;
79454;SDS011;68900;52.134;5.420;2023-11-18T03:26:49;23.08;;;11.00;;
79454;SDS011;68900;52.134;5.420;2023-11-18T03:29:15;27.83;;;11.90;;
79454;SDS011;68900;52.134;5.420;2023-11-18T03:31:42;23.30;;;11.00;;
79454;SDS011;68900;52.134;5.420;2023-11-18T03:34:10;22.27;;;11.45;;
79454;SDS011;68900;52.134;5.420;2023-11-18T03:36:37;25.88;;;12.10;;
79454;SDS011;68900;52.134;5.420;2023-11-18T03:39:03;25.75;;;11.93;;
79454;SDS011;68900;52.134;5.420;2023-11-18T03:41:30;26.83;;;12.25;;
79454;SDS011;68900;52.134;5.420;2023-11-18T03:43:56;27.95;;;12.43;;
79454;SDS011;68900;52.134;5.420;2023-11-18T03:46:23;23.00;;;11.27;;
79454;SDS011;68900;52.134;5.420;2023-11-18T03:48:49;23.48;;;11.18;;
79454;SDS011;68900;52.134;5.420;2023-11-18T03:51:16;26.85;;;11.75;;
79454;SDS011;68900;52.134;5.420;2023-11-18T03:53:45;27.70;;;12.48;;
79454;SDS011;68900;52.134;5.420;2023-11-18T03:56:16;27.73;;;12.85;;
79454;SDS011;68900;52.134;5.420;2023-11-18T03:58:44;23.92;;;11.05;;
79454;SDS011;68900;52.134;5.420;2023-11-18T04:01:23;26.38;;;12.02;;
79454;SDS011;68900;52.134;5.420;2023-11-18T04:03:53;26.38;;;11.88;;
79454;SDS011;68900;52.134;5.420;2023-11-18T04:06:24;22.75;;;11.07;;
79454;SDS011;68900;52.134;5.420;2023-11-18T04:08:50;25.17;;;12.00;;
79454;SDS011;68900;52.134;5.420;2023-11-18T04:11:20;24.95;;;11.18;;
79454;SDS011;68900;52.134;5.420;2023-11-18T04:13:46;25.33;;;11.60;;
79454;SDS011;68900;52.134;5.420;2023-11-18T04:16:13;24.52;;;11.20;;
79454;SDS011;68900;52.134;5.420;2023-11-18T04:18:49;24.45;;;11.63;;
79454;SDS011;68900;52.134;5.420;2023-11-18T04:21:16;23.33;;;11.23;;
79454;SDS011;68900;52.134;5.420;2023-11-18T04:23:42;21.10;;;11.07;;
79454;SDS011;68900;52.134;5.420;2023-11-18T04:26:10;21.90;;;11.07;;
79454;SDS011;68900;52.134;5.420;2023-11-18T04:28:36;23.33;;;10.75;;
79454;SDS011;68900;52.134;5.420;2023-11-18T04:31:03;27.05;;;12.02;;
79454;SDS011;68900;52.134;5.420;2023-11-18T04:33:31;24.23;;;11.57;;
79454;SDS011;68900;52.134;5.420;2023-11-18T04:35:59;27.45;;;11.75;;
79454;SDS011;68900;52.134;5.420;2023-11-18T04:38:26;23.63;;;10.90;;
79454;SDS011;68900;52.134;5.420;2023-11-18T04:40:53;26.23;;;11.98;;
79454;SDS011;68900;52.134;5.420;2023-11-18T04:43:23;26.42;;;11.98;;
79454;SDS011;68900;52.134;5.420;2023-11-18T04:46:07;27.00;;;11.85;;
79454;SDS011;68900;52.134;5.420;2023-11-18T04:48:34;25.05;;;11.45;;
79454;SDS011;68900;52.134;5.420;2023-11-18T04:51:05;21.63;;;11.20;;
79454;SDS011;68900;52.134;5.420;2023-11-18T04:53:32;31.38;;;11.23;;
79454;SDS011;68900;52.134;5.420;2023-11-18T04:56:00;23.98;;;11.90;;
79454;SDS011;68900;52.134;5.420;2023-11-18T04:58:27;23.70;;;11.45;;
79454;SDS011;68900;52.134;5.420;2023-11-18T05:00:53;20.10;;;10.18;;
79454;SDS011;68900;52.134;5.420;2023-11-18T05:03:20;22.95;;;10.57;;
79454;SDS011;68900;52.134;5.420;2023-11-18T05:05:47;22.67;;;10.98;;
79454;SDS011;68900;52.134;5.420;2023-11-18T05:08:18;23.58;;;10.73;;
79454;SDS011;68900;52.134;5.420;2023-11-18T05:10:47;24.83;;;11.63;;
79454;SDS011;68900;52.134;5.420;2023-11-18T05:13:17;22.52;;;11.57;;
79454;SDS011;68900;52.134;5.420;2023-11-18T05:15:48;24.13;;;11.95;;
79454;SDS011;68900;52.134;5.420;2023-11-18T05:18:16;22.83;;;11.00;;
79454;SDS011;68900;52.134;5.420;2023-11-18T05:20:43;21.52;;;11.27;;
79454;SDS011;68900;52.134;5.420;2023-11-18T05:23:11;25.50;;;11.50;;
79454;SDS011;68900;52.134;5.420;2023-11-18T05:25:39;24.25;;;11.85;;
79454;SDS011;68900;52.134;5.420;2023-11-18T05:28:06;20.85;;;11.10;;
79454;SDS011;68900;52.134;5.420;2023-11-18T05:30:35;21.40;;;11.02;;
79454;SDS011;68900;52.134;5.420;2023-11-18T05:33:04;24.33;;;11.68;;
79454;SDS011;68900;52.134;5.420;2023-11-18T05:35:32;23.02;;;12.00;;
79454;SDS011;68900;52.134;5.420;2023-11-18T05:37:59;26.08;;;11.23;;
79454;SDS011;68900;52.134;5.420;2023-11-18T05:40:29;23.02;;;11.98;;
79454;SDS011;68900;52.134;5.420;2023-11-18T05:42:56;24.90;;;11.10;;
79454;SDS011;68900;52.134;5.420;2023-11-18T05:45:24;23.48;;;11.18;;
79454;SDS011;68900;52.134;5.420;2023-11-18T05:48:10;23.65;;;10.95;;
79454;SDS011;68900;52.134;5.420;2023-11-18T05:50:37;26.73;;;12.15;;
79454;SDS011;68900;52.134;5.420;2023-11-18T05:53:05;23.85;;;11.48;;
79454;SDS011;68900;52.134;5.420;2023-11-18T05:55:32;22.48;;;11.00;;
79454;SDS011;68900;52.134;5.420;2023-11-18T05:58:02;23.23;;;10.73;;
79454;SDS011;68900;52.134;5.420;2023-11-18T06:00:28;26.05;;;11.20;;
79454;SDS011;68900;52.134;5.420;2023-11-18T06:02:58;21.33;;;10.65;;
79454;SDS011;68900;52.134;5.420;2023-11-18T06:05:24;24.38;;;11.70;;
79454;SDS011;68900;52.134;5.420;2023-11-18T06:07:52;22.27;;;10.85;;
79454;SDS011;68900;52.134;5.420;2023-11-18T06:10:19;21.50;;;10.30;;
79454;SDS011;68900;52.134;5.420;2023-11-18T06:12:46;24.45;;;10.73;;
79454;SDS011;68900;52.134;5.420;2023-11-18T06:15:16;20.85;;;10.30;;
79454;SDS011;68900;52.134;5.420;2023-11-18T06:17:45;25.30;;;11.00;;
79454;SDS011;68900;52.134;5.420;2023-11-18T06:20:12;21.85;;;10.68;;
79454;SDS011;68900;52.134;5.420;2023-11-18T06:22:40;21.85;;;9.63;;
79454;SDS011;68900;52.134;5.420;2023-11-18T06:25:10;19.98;;;9.80;;
79454;SDS011;68900;52.134;5.420;2023-11-18T06:27:38;18.17;;;8.40;;
79454;SDS011;68900;52.134;5.420;2023-11-18T06:30:05;23.77;;;10.32;;
79454;SDS011;68900;52.134;5.420;2023-11-18T06:32:38;19.08;;;8.70;;
79454;SDS011;68900;52.134;5.420;2023-11-18T06:35:05;18.08;;;8.73;;
79454;SDS011;68900;52.134;5.420;2023-11-18T06:37:32;20.27;;;9.18;;
79454;SDS011;68900;52.134;5.420;2023-11-18T06:39:59;22.95;;;9.18;;
79454;SDS011;68900;52.134;5.420;2023-11-18T06:42:26;20.35;;;8.55;;
79454;SDS011;68900;52.134;5.420;2023-11-18T06:47:22;18.23;;;8.38;;
79454;SDS011;68900;52.134;5.420;2023-11-18T06:49:49;19.33;;;8.75;;
79454;SDS011;68900;52.134;5.420;2023-11-18T06:52:18;26.30;;;9.50;;
79454;SDS011;68900;52.134;5.420;2023-11-18T06:54:45;23.15;;;9.13;;
79454;SDS011;68900;52.134;5.420;2023-11-18T06:57:14;18.10;;;8.40;;
79454;SDS011;68900;52.134;5.420;2023-11-18T06:59:41;20.33;;;8.77;;
79454;SDS011;68900;52.134;5.420;2023-11-18T07:02:07;20.05;;;8.77;;
79454;SDS011;68900;52.134;5.420;2023-11-18T07:04:36;19.88;;;8.13;;
79454;SDS011;68900;52.134;5.420;2023-11-18T07:07:04;19.23;;;8.95;;
79454;SDS011;68900;52.134;5.420;2023-11-18T07:09:35;17.17;;;8.20;;
79454;SDS011;68900;52.134;5.420;2023-11-18T07:12:02;19.27;;;8.25;;
79454;SDS011;68900;52.134;5.420;2023-11-18T07:14:29;18.48;;;7.68;;
79454;SDS011;68900;52.134;5.420;2023-11-18T07:16:56;20.02;;;9.23;;
79454;SDS011;68900;52.134;5.420;2023-11-18T07:19:22;22.17;;;9.00;;
79454;SDS011;68900;52.134;5.420;2023-11-18T07:21:49;21.95;;;8.75;;
79454;SDS011;68900;52.134;5.420;2023-11-18T07:24:16;19.60;;;8.30;;
79454;SDS011;68900;52.134;5.420;2023-11-18T07:26:44;18.33;;;8.00;;
79454;SDS011;68900;52.134;5.420;2023-11-18T07:29:11;19.38;;;8.43;;
79454;SDS011;68900;52.134;5.420;2023-11-18T07:31:38;23.10;;;8.82;;
79454;SDS011;68900;52.134;5.420;2023-11-18T07:34:04;18.33;;;8.32;;
79454;SDS011;68900;52.134;5.420;2023-11-18T07:36:34;19.52;;;8.55;;
79454;SDS011;68900;52.134;5.420;2023-11-18T07:39:00;20.63;;;8.60;;
79454;SDS011;68900;52.134;5.420;2023-11-18T07:41:30;22.63;;;9.60;;
79454;SDS011;68900;52.134;5.420;2023-11-18T07:43:59;22.13;;;8.70;;
79454;SDS011;68900;52.134;5.420;2023-11-18T07:46:27;20.08;;;8.93;;
79454;SDS011;68900;52.134;5.420;2023-11-18T07:48:59;19.38;;;8.70;;
79454;SDS011;68900;52.134;5.420;2023-11-18T07:51:28;22.15;;;9.02;;
79454;SDS011;68900;52.134;5.420;2023-11-18T07:53:55;19.55;;;8.95;;
79454;SDS011;68900;52.134;5.420;2023-11-18T07:56:29;18.33;;;8.55;;
79454;SDS011;68900;52.134;5.420;2023-11-18T07:58:58;18.42;;;9.10;;
79454;SDS011;68900;52.134;5.420;2023-11-18T08:01:27;19.33;;;9.45;;
79454;SDS011;68900;52.134;5.420;2023-11-18T08:03:54;20.50;;;8.68;;
79454;SDS011;68900;52.134;5.420;2023-11-18T08:06:22;23.63;;;8.88;;
79454;SDS011;68900;52.134;5.420;2023-11-18T08:08:52;19.10;;;8.57;;
79454;SDS011;68900;52.134;5.420;2023-11-18T08:11:20;21.05;;;8.63;;
79454;SDS011;68900;52.134;5.420;2023-11-18T08:13:52;20.35;;;9.48;;
79454;SDS011;68900;52.134;5.420;2023-11-18T08:16:19;23.67;;;9.13;;
79454;SDS011;68900;52.134;5.420;2023-11-18T08:18:48;18.83;;;8.45;;
79454;SDS011;68900;52.134;5.420;2023-11-18T08:21:15;17.23;;;8.75;;
79454;SDS011;68900;52.134;5.420;2023-11-18T08:23:42;19.73;;;8.13;;
79454;SDS011;68900;52.134;5.420;2023-11-18T08:26:11;20.58;;;8.77;;
79454;SDS011;68900;52.134;5.420;2023-11-18T08:28:38;20.40;;;8.40;;
79454;SDS011;68900;52.134;5.420;2023-11-18T08:31:04;20.67;;;8.63;;
79454;SDS011;68900;52.134;5.420;2023-11-18T08:33:45;18.83;;;9.18;;
79454;SDS011;68900;52.134;5.420;2023-11-18T08:36:12;18.13;;;8.10;;
79454;SDS011;68900;52.134;5.420;2023-11-18T08:38:39;15.35;;;7.38;;
79454;SDS011;68900;52.134;5.420;2023-11-18T08:41:06;16.13;;;7.75;;
79454;SDS011;68900;52.134;5.420;2023-11-18T08:43:35;22.20;;;8.68;;
79454;SDS011;68900;52.134;5.420;2023-11-18T08:46:02;17.17;;;7.63;;
79454;SDS011;68900;52.134;5.420;2023-11-18T08:48:28;15.88;;;7.18;;
79454;SDS011;68900;52.134;5.420;2023-11-18T08:50:55;14.85;;;7.72;;
79454;SDS011;68900;52.134;5.420;2023-11-18T08:53:21;15.05;;;7.05;;
79454;SDS011;68900;52.134;5.420;2023-11-18T08:55:52;14.98;;;6.32;;
79454;SDS011;68900;52.134;5.420;2023-11-18T08:58:31;15.77;;;6.93;;
79454;SDS011;68900;52.134;5.420;2023-11-18T09:01:00;12.68;;;6.40;;
79454;SDS011;68900;52.134;5.420;2023-11-18T09:03:42;17.00;;;7.35;;
79454;SDS011;68900;52.134;5.420;2023-11-18T09:06:18;16.92;;;6.68;;
79454;SDS011;68900;52.134;5.420;2023-11-18T09:08:45;12.65;;;6.63;;
79454;SDS011;68900;52.134;5.420;2023-11-18T09:11:18;12.93;;;6.07;;
79454;SDS011;68900;52.134;5.420;2023-11-18T09:13:50;14.73;;;6.68;;
79454;SDS011;68900;52.134;5.420;2023-11-18T09:40:05;15.57;;;5.65;;
79454;SDS011;68900;52.134;5.420;2023-11-18T09:42:37;12.55;;;6.30;;
79454;SDS011;68900;52.134;5.420;2023-11-18T09:45:05;16.17;;;6.22;;
79454;SDS011;68900;52.134;5.420;2023-11-18T09:47:36;12.60;;;5.38;;
79454;SDS011;68900;52.134;5.420;2023-11-18T09:50:07;12.27;;;5.05;;
79454;SDS011;68900;52.134;5.420;2023-11-18T09:52:39;13.82;;;5.65;;
79454;SDS011;68900;52.134;5.420;2023-11-18T09:55:10;10.90;;;4.88;;
79454;SDS011;68900;52.134;5.420;2023-11-18T09:57:47;13.57;;;4.85;;
79454;SDS011;68900;52.134;5.420;2023-11-18T10:00:23;13.73;;;4.93;;
79454;SDS011;68900;52.134;5.420;2023-11-18T10:02:58;11.45;;;5.07;;
79454;SDS011;68900;52.134;5.420;2023-11-18T10:05:28;14.15;;;4.75;;
79454;SDS011;68900;52.134;5.420;2023-11-18T10:07:58;11.50;;;5.90;;
79454;SDS011;68900;52.134;5.420;2023-11-18T10:10:40;11.95;;;5.28;;
79454;SDS011;68900;52.134;5.420;2023-11-18T10:13:11;12.55;;;5.15;;
79454;SDS011;68900;52.134;5.420;2023-11-18T10:19:53;10.65;;;4.88;;
79454;SDS011;68900;52.134;5.420;2023-11-18T10:22:26;9.15;;;4.53;;
79454;SDS011;68900;52.134;5.420;2023-11-18T10:24:56;11.52;;;4.82;;
79454;SDS011;68900;52.134;5.420;2023-11-18T10:27:24;14.02;;;5.32;;
79454;SDS011;68900;52.134;5.420;2023-11-18T10:29:55;11.93;;;4.78;;
79454;SDS011;68900;52.134;5.420;2023-11-18T10:32:22;11.38;;;4.68;;
79454;SDS011;68900;52.134;5.420;2023-11-18T10:34:57;13.18;;;5.32;;
79454;SDS011;68900;52.134;5.420;2023-11-18T10:37:25;10.75;;;4.35;;
79454;SDS011;68900;52.134;5.420;2023-11-18T10:39:57;10.32;;;4.78;;
79454;SDS011;68900;52.134;5.420;2023-11-18T10:42:26;13.07;;;4.65;;
79454;SDS011;68900;52.134;5.420;2023-11-18T10:45:10;12.75;;;4.28;;
79454;SDS011;68900;52.134;5.420;2023-11-18T10:47:39;15.18;;;4.90;;
79454;SDS011;68900;52.134;5.420;2023-11-18T10:50:14;15.35;;;4.82;;
79454;SDS011;68900;52.134;5.420;2023-11-18T10:52:40;17.10;;;6.78;;
79454;SDS011;68900;52.134;5.420;2023-11-18T10:55:08;12.38;;;5.38;;
79454;SDS011;68900;52.134;5.420;2023-11-18T10:57:39;14.60;;;6.45;;
79454;SDS011;68900;52.134;5.420;2023-11-18T11:02:41;13.60;;;5.68;;
79454;SDS011;68900;52.134;5.420;2023-11-18T11:05:08;12.63;;;5.57;;
79454;SDS011;68900;52.134;5.420;2023-11-18T11:07:47;9.73;;;4.47;;
79454;SDS011;68900;52.134;5.420;2023-11-18T11:10:15;12.43;;;4.00;;
79454;SDS011;68900;52.134;5.420;2023-11-18T11:12:43;11.30;;;4.25;;
79454;SDS011;68900;52.134;5.420;2023-11-18T11:15:23;10.27;;;4.57;;
79454;SDS011;68900;52.134;5.420;2023-11-18T11:17:57;9.27;;;5.07;;
79454;SDS011;68900;52.134;5.420;2023-11-18T11:23:53;8.85;;;4.05;;
79454;SDS011;68900;52.134;5.420;2023-11-18T11:27:05;12.43;;;4.82;;
79454;SDS011;68900;52.134;5.420;2023-11-18T11:30:02;8.90;;;4.20;;
79454;SDS011;68900;52.134;5.420;2023-11-18T11:32:49;8.27;;;3.97;;
79454;SDS011;68900;52.134;5.420;2023-11-18T11:35:27;11.50;;;4.43;;
79454;SDS011;68900;52.134;5.420;2023-11-18T11:37:57;8.25;;;3.70;;
79454;SDS011;68900;52.134;5.420;2023-11-18T11:40:31;8.13;;;3.60;;
79454;SDS011;68900;52.134;5.420;2023-11-18T11:43:00;9.90;;;4.30;;
79454;SDS011;68900;52.134;5.420;2023-11-18T11:45:31;10.93;;;4.35;;
79454;SDS011;68900;52.134;5.420;2023-11-18T11:48:00;7.82;;;3.67;;
79454;SDS011;68900;52.134;5.420;2023-11-18T11:53:37;9.27;;;3.58;;
79454;SDS011;68900;52.134;5.420;2023-11-18T11:56:11;10.27;;;3.65;;
79454;SDS011;68900;52.134;5.420;2023-11-18T11:58:41;13.93;;;4.00;;
79454;SDS011;68900;52.134;5.420;2023-11-18T12:04:05;11.07;;;3.55;;
79454;SDS011;68900;52.134;5.420;2023-11-18T12:06:47;8.30;;;3.13;;
79454;SDS011;68900;52.134;5.420;2023-11-18T12:09:17;8.45;;;3.42;;
79454;SDS011;68900;52.134;5.420;2023-11-18T12:14:32;8.52;;;3.10;;
79454;SDS011;68900;52.134;5.420;2023-11-18T12:20:44;10.82;;;4.57;;
79454;SDS011;68900;52.134;5.420;2023-11-18T12:23:14;9.27;;;2.95;;
79454;SDS011;68900;52.134;5.420;2023-11-18T12:25:42;7.95;;;2.70;;
79454;SDS011;68900;52.134;5.420;2023-11-18T12:28:15;9.35;;;2.65;;
79454;SDS011;68900;52.134;5.420;2023-11-18T12:30:43;7.20;;;2.88;;
79454;SDS011;68900;52.134;5.420;2023-11-18T12:33:23;8.15;;;2.60;;
79454;SDS011;68900;52.134;5.420;2023-11-18T12:38:25;7.13;;;2.53;;
79454;SDS011;68900;52.134;5.420;2023-11-18T12:41:21;7.63;;;2.53;;
79454;SDS011;68900;52.134;5.420;2023-11-18T12:46:54;9.00;;;3.67;;
79454;SDS011;68900;52.134;5.420;2023-11-18T12:49:22;6.60;;;3.00;;
79454;SDS011;68900;52.134;5.420;2023-11-18T12:51:56;9.77;;;2.53;;
79454;SDS011;68900;52.134;5.420;2023-11-18T12:54:30;7.30;;;3.10;;
79454;SDS011;68900;52.134;5.420;2023-11-18T12:56:57;7.45;;;2.28;;
79454;SDS011;68900;52.134;5.420;2023-11-18T12:59:33;8.05;;;1.88;;
79454;SDS011;68900;52.134;5.420;2023-11-18T13:02:10;5.13;;;2.05;;
79454;SDS011;68900;52.134;5.420;2023-11-18T13:04:45;5.88;;;2.13;;
79454;SDS011;68900;52.134;5.420;2023-11-18T13:07:19;8.90;;;1.60;;
79454;SDS011;68900;52.134;5.420;2023-11-18T13:09:47;7.40;;;1.90;;
79454;SDS011;68900;52.134;5.420;2023-11-18T13:12:14;5.88;;;1.85;;
79454;SDS011;68900;52.134;5.420;2023-11-18T13:14:42;6.35;;;2.20;;
79454;SDS011;68900;52.134;5.420;2023-11-18T13:17:09;6.82;;;2.25;;
79454;SDS011;68900;52.134;5.420;2023-11-18T13:31:10;5.93;;;1.80;;
79454;SDS011;68900;52.134;5.420;2023-11-18T13:33:55;5.50;;;1.92;;
79454;SDS011;68900;52.134;5.420;2023-11-18T13:36:21;5.65;;;1.85;;
79454;SDS011;68900;52.134;5.420;2023-11-18T13:41:48;5.80;;;1.83;;
79454;SDS011;68900;52.134;5.420;2023-11-18T13:44:50;4.40;;;1.52;;
79454;SDS011;68900;52.134;5.420;2023-11-18T13:47:12;7.05;;;2.33;;
79454;SDS011;68900;52.134;5.420;2023-11-18T13:49:39;6.15;;;2.20;;
79454;SDS011;68900;52.134;5.420;2023-11-18T13:52:06;6.40;;;2.20;;
79454;SDS011;68900;52.134;5.420;2023-11-18T13:55:04;6.18;;;2.03;;
79454;SDS011;68900;52.134;5.420;2023-11-18T13:57:33;4.20;;;2.03;;
79454;SDS011;68900;52.134;5.420;2023-11-18T14:00:04;3.80;;;1.58;;
79454;SDS011;68900;52.134;5.420;2023-11-18T14:03:03;4.85;;;1.52;;
79454;SDS011;68900;52.134;5.420;2023-11-18T14:06:31;4.13;;;1.35;;
79454;SDS011;68900;52.134;5.420;2023-11-18T14:08:57;3.70;;;1.48;;
79454;SDS011;68900;52.134;5.420;2023-11-18T14:29:26;3.03;;;0.90;;
79454;SDS011;68900;52.134;5.420;2023-11-18T14:31:55;3.53;;;0.85;;
79454;SDS011;68900;52.134;5.420;2023-11-18T14:34:22;1.73;;;0.70;;
79454;SDS011;68900;52.134;5.420;2023-11-18T14:36:53;4.55;;;1.10;;
79454;SDS011;68900;52.134;5.420;2023-11-18T14:39:20;2.63;;;0.90;;
79454;SDS011;68900;52.134;5.420;2023-11-18T14:41:49;3.72;;;1.23;;
79454;SDS011;68900;52.134;5.420;2023-11-18T14:44:23;3.80;;;1.30;;
79454;SDS011;68900;52.134;5.420;2023-11-18T14:46:53;3.70;;;1.40;;
79454;SDS011;68900;52.134;5.420;2023-11-18T14:49:21;5.15;;;1.55;;
79454;SDS011;68900;52.134;5.420;2023-11-18T14:51:48;4.65;;;1.20;;
79454;SDS011;68900;52.134;5.420;2023-11-18T14:54:15;2.85;;;0.98;;
79454;SDS011;68900;52.134;5.420;2023-11-18T14:56:42;4.60;;;1.35;;
79454;SDS011;68900;52.134;5.420;2023-11-18T14:59:08;3.10;;;0.90;;
79454;SDS011;68900;52.134;5.420;2023-11-18T15:01:35;2.58;;;1.02;;
79454;SDS011;68900;52.134;5.420;2023-11-18T15:04:02;3.17;;;0.73;;
79454;SDS011;68900;52.134;5.420;2023-11-18T15:06:35;3.97;;;1.20;;
79454;SDS011;68900;52.134;5.420;2023-11-18T15:09:02;3.30;;;1.00;;
79454;SDS011;68900;52.134;5.420;2023-11-18T15:12:06;5.22;;;1.63;;
79454;SDS011;68900;52.134;5.420;2023-11-18T15:14:37;5.95;;;2.08;;
79454;SDS011;68900;52.134;5.420;2023-11-18T15:17:06;4.65;;;1.70;;
79454;SDS011;68900;52.134;5.420;2023-11-18T15:19:33;3.03;;;1.27;;
79454;SDS011;68900;52.134;5.420;2023-11-18T15:22:00;3.47;;;1.35;;
79454;SDS011;68900;52.134;5.420;2023-11-18T15:24:27;6.05;;;2.97;;
79454;SDS011;68900;52.134;5.420;2023-11-18T15:26:54;27.15;;;15.63;;
79454;SDS011;68900;52.134;5.420;2023-11-18T15:29:21;4.63;;;2.05;;
79454;SDS011;68900;52.134;5.420;2023-11-18T15:31:54;34.58;;;17.48;;
79454;SDS011;68900;52.134;5.420;2023-11-18T15:34:21;5.45;;;2.38;;
79454;SDS011;68900;52.134;5.420;2023-11-18T15:36:47;5.50;;;2.50;;
79454;SDS011;68900;52.134;5.420;2023-11-18T15:39:14;2.83;;;1.00;;
79454;SDS011;68900;52.134;5.420;2023-11-18T15:41:41;3.75;;;1.10;;
79454;SDS011;68900;52.134;5.420;2023-11-18T15:44:08;2.50;;;0.98;;
79454;SDS011;68900;52.134;5.420;2023-11-18T15:46:39;3.72;;;1.10;;
79454;SDS011;68900;52.134;5.420;2023-11-18T15:49:05;3.67;;;1.10;;
79454;SDS011;68900;52.134;5.420;2023-11-18T15:51:32;3.17;;;1.08;;
79454;SDS011;68900;52.134;5.420;2023-11-18T15:53:59;3.40;;;1.38;;
79454;SDS011;68900;52.134;5.420;2023-11-18T15:56:28;3.83;;;1.20;;
79454;SDS011;68900;52.134;5.420;2023-11-18T15:58:55;3.70;;;1.60;;
79454;SDS011;68900;52.134;5.420;2023-11-18T16:01:22;4.60;;;1.83;;
79454;SDS011;68900;52.134;5.420;2023-11-18T16:03:51;7.60;;;3.35;;
79454;SDS011;68900;52.134;5.420;2023-11-18T16:06:17;7.63;;;3.63;;
79454;SDS011;68900;52.134;5.420;2023-11-18T16:08:45;23.88;;;11.32;;
79454;SDS011;68900;52.134;5.420;2023-11-18T16:11:13;7.70;;;3.78;;
79454;SDS011;68900;52.134;5.420;2023-11-18T16:13:39;8.68;;;5.00;;
79454;SDS011;68900;52.134;5.420;2023-11-18T16:16:07;7.13;;;3.95;;
79454;SDS011;68900;52.134;5.420;2023-11-18T16:18:34;10.65;;;4.35;;
79454;SDS011;68900;52.134;5.420;2023-11-18T16:21:01;6.07;;;3.47;;
79454;SDS011;68900;52.134;5.420;2023-11-18T16:23:30;3.50;;;1.70;;
79454;SDS011;68900;52.134;5.420;2023-11-18T16:26:01;3.45;;;1.63;;
79454;SDS011;68900;52.134;5.420;2023-11-18T16:28:28;8.18;;;5.00;;
79454;SDS011;68900;52.134;5.420;2023-11-18T16:30:55;4.15;;;2.05;;
79454;SDS011;68900;52.134;5.420;2023-11-18T16:33:28;2.83;;;1.13;;
79454;SDS011;68900;52.134;5.420;2023-11-18T16:35:56;5.25;;;2.35;;
79454;SDS011;68900;52.134;5.420;2023-11-18T16:38:26;14.75;;;7.40;;
79454;SDS011;68900;52.134;5.420;2023-11-18T16:40:52;8.93;;;4.97;;